Enter the Airport ICAO Code

Search by Airport or City

Current Weather

KMFE | McAllen Miller International Airport

McAllen, Texas, United States

Last Update 13 Minutes Ago

Sky with Few Clouds

Temperature of 31 ºC

Moderate Winds from SouthEast

Temperature

31 ºC

Dew Point Temperature

21 ºC

Relative Humidity

55.52 %

Wind Direction

SouthEast (130º, Without Significant Variations)

Wind Velocity

22 km/h (12 kt)

Gusts

None

Visibility

Greater than 10 Miles

Sea Level Pressure

29.98 inHg (Inches of Mercury)

Layers of Clouds

5% to 30% of Sky Covered from 1524 mts (5000 ft) Above Ground Level.

METAR KMFE 202353Z 13012KT 10SM FEW050 31/21 A2998 RMK AO2 SLP151 T03060206 10339 20306 53003

Weather Forecast

KMFE | McAllen Miller International Airport

McAllen, Texas, United States

Forecast valid for the next 24 Hours

From now on it is expected:

Sky with Few Clouds

Light to Moderate Winds from SouthEast

In 5 hours it is expected the begining of:

Clear Sky

Light Winds from East

In 16 hours it is expected the begining of:

Partly Cloudy Sky

Light to Moderate Winds from SouthEast

Maximum Temperature

No Data

Minimum Temperature

No Data

TAF KMFE 202320Z 2100/2124 12009KT P6SM FEW200 FM210500 11004KT P6SM SKC FM211600 12006KT P6SM SCT030